YND weather

Ottawa / Gatineau Airport
Gatineau, Quebec, Canada

Public forecast

Using degrees Celsius for public forecast. Weather courtesy of forecast.io.

Current aviation weather report (METAR) for Ottawa / Gatineau Airport

Retrieved 2019/11/13 21:00 UTC (19 minutes ago):

CYND 132100Z 23007KT 15SM FEW200 M08/M15 A3037 RMK CI1 SLP291

Aviation forecast (TAF) for Ottawa / Gatineau Airport

Retrieved 2019/11/13 18:00 UTC (3 hours ago):

TAF CYND 131739Z 1318/1402 26007KT P6SM FEW015 BECMG 1320/1322 VRB03KT FM140100 VRB03KT P6SM BKN100 RMK NXT FCST BY 140000Z